EHGR/GLZ METAR and TAF weather

Enter ICAO airport designator
Station Type Date Time Source
EHGR METAR 2021/09/24 06:25 UTC NOAA

EHGR 240625Z AUTO 21005KT 180V240 2700 BR FEW006 SCT007 BKN008 16/15 Q1016 YLO


Station Type Date Time Source
EHGR Decoded METAR 2021/09/24 06:25 UTC NOAA

Gilze-Rijen, Netherlands (EHGR) 51-34N 004-56E 24M
Sep 24, 2021 - 02:25 AM EDT / 2021.09.24 0625 UTC
Wind: from the SSW (210 degrees) at 6 MPH (5 KT) (direction variable):0
Visibility: 1 mile(s):0
Sky conditions: mostly cloudy
Weather: mist
Temperature: 60 F (16 C)
Dew Point: 59 F (15 C)
Relative Humidity: 93%
Pressure (altimeter): 30.00 in. Hg (1016 hPa)
ob: EHGR 240625Z AUTO 21005KT 180V240 2700 BR FEW006 SCT007 BKN008 16/15 Q1016 YLO
cycle: 6

Station Type Date Time Source
EHGR TAF 2021/09/24 05:06 UTC NOAA

TAF TAF EHGR 240441Z 2405/2417 23006KT 1200 BR SCT002 BKN003 PROB40
TEMPO 2405/2407 0700 FG SCT001 BKN002
BECMG 2406/2409 6000 NSW SCT005 BKN007
BECMG 2409/2412 24010G20KT FEW015 SCT020

Example: see airport list